createdAt,value
2018-11-07T00:02:25.680Z,101389.08
2018-11-07T00:05:29.284Z,101387.78
2018-11-07T00:08:32.810Z,101380.94
2018-11-07T00:11:36.391Z,101380.24
2018-11-07T00:14:41.025Z,101380.58
2018-11-07T00:17:44.630Z,101389.51
2018-11-07T00:20:48.183Z,101394.78
2018-11-07T00:23:51.883Z,101393.91
2018-11-07T00:26:55.437Z,101386.49
2018-11-07T00:29:59.200Z,101381.36
2018-11-07T00:33:02.715Z,101389.26
2018-11-07T00:36:06.811Z,101382.23
2018-11-07T00:39:10.883Z,101381.17
2018-11-07T00:42:14.367Z,101387.42
2018-11-07T00:45:17.952Z,101386.32
2018-11-07T00:48:21.526Z,101388.30
2018-11-07T00:51:25.015Z,101391.39
2018-11-07T00:54:28.562Z,101389.23
2018-11-07T00:57:32.147Z,101393.37
2018-11-07T01:00:35.630Z,101398.14
2018-11-07T01:03:39.255Z,101400.85
2018-11-07T01:06:42.707Z,101408.65
2018-11-07T01:09:46.287Z,101411.07
2018-11-07T01:12:49.952Z,101412.30
2018-11-07T01:15:53.467Z,101417.43
2018-11-07T01:18:56.961Z,101415.58
2018-11-07T01:22:00.503Z,101412.75
2018-11-07T01:25:04.243Z,101419.03
2018-11-07T01:28:07.768Z,101411.72
2018-11-07T01:31:11.244Z,101407.15
2018-11-07T01:34:15.112Z,101407.38
2018-11-07T01:37:18.633Z,101410.25
2018-11-07T01:40:22.219Z,101405.76
2018-11-07T01:43:25.724Z,101395.69
2018-11-07T01:46:29.207Z,101388.28
2018-11-07T01:49:32.744Z,101389.65
2018-11-07T01:52:36.283Z,101386.39
2018-11-07T01:55:39.805Z,101375.27
2018-11-07T01:58:43.251Z,101370.00
2018-11-07T02:01:46.755Z,101367.34
2018-11-07T02:04:50.280Z,101364.47
2018-11-07T02:07:53.874Z,101360.48
2018-11-07T02:10:57.405Z,101360.15
2018-11-07T02:14:00.975Z,101371.02
2018-11-07T02:17:04.562Z,101365.72
2018-11-07T02:20:09.440Z,101370.14
2018-11-07T02:23:13.025Z,101368.50
2018-11-07T02:26:16.606Z,101361.21
2018-11-07T02:29:21.165Z,101357.47
2018-11-07T02:32:24.661Z,101357.54
2018-11-07T02:35:28.170Z,101357.55
2018-11-07T02:38:31.681Z,101355.61
2018-11-07T02:41:35.243Z,101355.66
2018-11-07T02:44:38.707Z,101366.21
2018-11-07T02:47:42.315Z,101370.05
2018-11-07T02:50:45.816Z,101379.87
2018-11-07T02:53:49.356Z,101388.63
2018-11-07T02:56:52.893Z,101383.53
2018-11-07T02:59:56.437Z,101381.38
2018-11-07T03:02:59.949Z,101374.99
2018-11-07T03:06:03.513Z,101377.41
2018-11-07T03:09:09.351Z,101379.05
2018-11-07T03:12:12.770Z,101381.07
2018-11-07T03:15:16.315Z,101380.47
2018-11-07T03:18:19.818Z,101383.62
2018-11-07T03:21:23.300Z,101378.73
2018-11-07T03:24:26.803Z,101383.19
2018-11-07T03:27:30.310Z,101396.19
2018-11-07T03:30:33.772Z,101390.99
2018-11-07T03:33:37.350Z,101381.72
2018-11-07T03:36:40.849Z,101374.41
2018-11-07T03:39:44.489Z,101370.40
2018-11-07T03:42:48.047Z,101382.08
2018-11-07T03:45:56.807Z,101371.04
2018-11-07T03:49:00.259Z,101367.68
2018-11-07T03:52:03.715Z,101363.32
2018-11-07T03:55:07.465Z,101367.47
2018-11-07T03:58:10.974Z,101359.49
2018-11-07T04:01:14.479Z,101362.29
2018-11-07T04:04:18.004Z,101365.38
2018-11-07T04:07:21.448Z,101354.37
2018-11-07T04:10:24.985Z,101356.65
2018-11-07T04:13:28.507Z,101362.55
2018-11-07T04:16:32.010Z,101356.12
2018-11-07T04:19:35.513Z,101357.74
2018-11-07T04:22:39.358Z,101360.99
2018-11-07T04:25:42.729Z,101370.92
2018-11-07T04:28:46.195Z,101367.56
2018-11-07T04:31:49.731Z,101355.08
2018-11-07T04:34:53.744Z,101356.05
2018-11-07T04:37:57.170Z,101357.15
2018-11-07T04:41:00.609Z,101350.07
2018-11-07T04:44:04.323Z,101358.55
2018-11-07T04:47:08.092Z,101364.87
2018-11-07T04:50:12.547Z,101368.40
2018-11-07T04:53:16.099Z,101375.95
2018-11-07T04:56:19.504Z,101381.75
2018-11-07T04:59:23.121Z,101380.89
2018-11-07T05:02:26.757Z,101381.92
2018-11-07T05:05:30.327Z,101382.91
2018-11-07T05:08:33.993Z,101374.33
2018-11-07T05:11:37.443Z,101371.42
2018-11-07T05:14:40.998Z,101374.56
2018-11-07T05:17:44.578Z,101368.03
2018-11-07T05:20:48.225Z,101367.21
2018-11-07T05:23:53.051Z,101363.36
2018-11-07T05:26:56.678Z,101369.70
2018-11-07T05:30:00.248Z,101372.87
2018-11-07T05:33:03.868Z,101379.21
2018-11-07T05:36:07.950Z,101384.98
2018-11-07T05:39:11.493Z,101386.52
2018-11-07T05:42:15.127Z,101387.23
2018-11-07T05:45:18.799Z,101389.90
2018-11-07T05:48:22.268Z,101392.70
2018-11-07T05:51:25.862Z,101404.51
2018-11-07T05:54:29.369Z,101400.47
2018-11-07T05:57:32.815Z,101403.42
2018-11-07T06:00:37.360Z,101400.31
2018-11-07T06:03:40.931Z,101398.92
2018-11-07T06:06:44.513Z,101398.08
2018-11-07T06:09:48.013Z,101404.37
2018-11-07T06:12:51.478Z,101413.14
2018-11-07T06:15:55.101Z,101418.01
2018-11-07T06:18:59.611Z,101415.79
2018-11-07T06:22:18.474Z,101418.58
2018-11-07T06:25:23.057Z,101422.29
2018-11-07T06:28:26.623Z,101414.69
2018-11-07T06:31:30.152Z,101414.80
2018-11-07T06:34:33.612Z,101413.92
2018-11-07T06:37:37.135Z,101415.45
2018-11-07T06:40:40.640Z,101421.48
2018-11-07T06:43:44.145Z,101419.00
2018-11-07T06:46:47.628Z,101417.30
2018-11-07T06:49:51.095Z,101421.57
2018-11-07T06:52:54.947Z,101424.73
2018-11-07T06:55:58.518Z,101428.20
2018-11-07T06:59:02.124Z,101425.63
2018-11-07T07:02:05.707Z,101428.35
2018-11-07T07:05:09.222Z,101428.79
2018-11-07T07:08:12.793Z,101428.87
2018-11-07T07:11:16.219Z,101426.27
2018-11-07T07:14:19.784Z,101423.63
2018-11-07T07:17:23.417Z,101433.66
2018-11-07T07:20:27.001Z,101434.27
2018-11-07T07:23:30.504Z,101434.78
2018-11-07T07:26:34.142Z,101437.23
2018-11-07T07:29:37.716Z,101428.77
2018-11-07T07:32:42.100Z,101432.69
2018-11-07T07:35:46.680Z,101425.01
2018-11-07T07:38:50.295Z,101428.01
2018-11-07T07:41:53.689Z,101426.93
2018-11-07T07:44:57.052Z,101419.62
2018-11-07T07:48:00.501Z,101421.66
2018-11-07T07:51:04.006Z,101419.73
2018-11-07T07:54:07.571Z,101418.64
2018-11-07T07:57:11.010Z,101422.10
2018-11-07T08:00:16.699Z,101422.91
2018-11-07T08:03:20.151Z,101425.81
2018-11-07T08:06:23.861Z,101424.93
2018-11-07T08:09:27.343Z,101424.20
2018-11-07T08:12:30.740Z,101427.87
2018-11-07T08:15:34.223Z,101425.96
2018-11-07T08:18:37.738Z,101420.92
2018-11-07T08:21:41.280Z,101419.68
2018-11-07T08:24:44.742Z,101420.08
2018-11-07T08:27:48.207Z,101419.11
2018-11-07T08:30:51.986Z,101416.12
2018-11-07T08:33:55.368Z,101412.14
2018-11-07T08:36:58.813Z,101411.39
2018-11-07T08:40:02.413Z,101405.78
2018-11-07T08:43:05.942Z,101406.21
2018-11-07T08:46:09.467Z,101403.47
2018-11-07T08:49:12.953Z,101403.92
2018-11-07T08:52:16.456Z,101399.95
2018-11-07T08:55:21.251Z,101399.69
2018-11-07T08:58:24.698Z,101409.35
2018-11-07T09:01:28.243Z,101413.89
2018-11-07T09:04:31.678Z,101418.86
2018-11-07T09:07:35.525Z,101414.74
2018-11-07T09:10:38.991Z,101417.01
2018-11-07T09:13:42.521Z,101411.66
2018-11-07T09:16:45.971Z,101412.82
2018-11-07T09:19:49.484Z,101415.29
2018-11-07T09:22:53.022Z,101412.30
2018-11-07T09:25:56.620Z,101403.91
2018-11-07T09:29:00.135Z,101403.46
2018-11-07T09:32:03.490Z,101405.02
2018-11-07T09:35:08.013Z,101404.63
2018-11-07T09:38:11.426Z,101408.40
2018-11-07T09:41:14.969Z,101406.63
2018-11-07T09:44:18.487Z,101405.52
2018-11-07T09:47:22.043Z,101404.94
2018-11-07T09:50:25.477Z,101400.19
2018-11-07T09:53:28.935Z,101396.39
2018-11-07T09:56:32.300Z,101398.10
2018-11-07T09:59:35.875Z,101396.06
2018-11-07T10:02:39.630Z,101388.76
2018-11-07T10:05:43.079Z,101392.36
2018-11-07T10:08:46.672Z,101392.90
2018-11-07T10:11:50.211Z,101390.45
2018-11-07T10:14:54.806Z,101393.39
2018-11-07T10:17:58.284Z,101392.11
2018-11-07T10:21:01.683Z,101378.28
2018-11-07T10:24:05.429Z,101387.15
2018-11-07T10:27:09.165Z,101381.93
2018-11-07T10:30:14.612Z,101376.39
2018-11-07T10:33:17.749Z,101381.77
2018-11-07T10:36:21.442Z,101374.18
2018-11-07T10:39:24.856Z,101371.14
2018-11-07T10:42:28.335Z,101372.82
2018-11-07T10:45:31.790Z,101375.60
2018-11-07T10:48:35.389Z,101371.86
2018-11-07T10:51:39.006Z,101371.03
2018-11-07T10:54:42.614Z,101363.62
2018-11-07T10:57:46.389Z,101362.06
2018-11-07T11:00:55.106Z,101356.86
2018-11-07T11:03:58.524Z,101353.62
2018-11-07T11:07:02.045Z,101348.49
2018-11-07T11:10:05.768Z,101351.54
2018-11-07T11:13:10.419Z,101346.48
2018-11-07T11:16:13.909Z,101343.88
2018-11-07T11:19:17.495Z,101343.38
2018-11-07T11:22:21.108Z,101334.60
2018-11-07T11:25:24.714Z,101338.82
2018-11-07T11:28:28.281Z,101336.26
2018-11-07T11:31:31.795Z,101327.90
2018-11-07T11:34:35.523Z,101323.49
2018-11-07T11:37:39.158Z,101328.22
2018-11-07T11:40:42.673Z,101332.64
2018-11-07T11:43:46.213Z,101331.55
2018-11-07T11:46:50.020Z,101333.33
2018-11-07T11:49:53.561Z,101339.81
2018-11-07T11:52:57.091Z,101333.73
2018-11-07T11:56:00.610Z,101334.98
2018-11-07T11:59:04.583Z,101332.45
2018-11-07T12:02:08.082Z,101335.37
2018-11-07T12:05:12.854Z,101324.16
2018-11-07T12:08:16.467Z,101321.25
2018-11-07T12:11:19.993Z,101319.43
2018-11-07T12:14:23.559Z,101312.08
2018-11-07T12:17:27.092Z,101314.86
2018-11-07T12:20:30.716Z,101313.40
2018-11-07T12:23:34.274Z,101315.57
2018-11-07T12:26:37.818Z,101309.80
2018-11-07T12:29:41.449Z,101317.32
2018-11-07T12:32:46.357Z,101314.35
2018-11-07T12:35:50.161Z,101309.05
2018-11-07T12:38:53.573Z,101304.32
2018-11-07T12:41:57.069Z,101303.88
2018-11-07T12:45:01.153Z,101300.12
2018-11-07T12:48:04.903Z,101302.71
2018-11-07T12:51:08.506Z,101302.31
2018-11-07T12:54:11.955Z,101307.23
2018-11-07T12:57:15.499Z,101311.14
2018-11-07T13:00:21.434Z,101305.41
2018-11-07T13:03:24.821Z,101309.67
2018-11-07T13:06:28.329Z,101306.86
2018-11-07T13:09:31.839Z,101299.17
2018-11-07T13:12:35.308Z,101298.66
2018-11-07T13:15:38.817Z,101302.21
2018-11-07T13:18:42.521Z,101307.77
2018-11-07T13:21:46.043Z,101315.96
2018-11-07T13:24:49.525Z,101313.67
2018-11-07T13:27:53.115Z,101320.38
2018-11-07T13:30:56.655Z,101323.07
2018-11-07T13:34:00.196Z,101330.16
2018-11-07T13:37:03.754Z,101334.11
2018-11-07T13:40:10.141Z,101338.94
2018-11-07T13:43:13.696Z,101344.57
2018-11-07T13:46:17.309Z,101332.62
2018-11-07T13:49:20.833Z,101334.20
2018-11-07T13:52:24.356Z,101337.80
2018-11-07T13:55:27.927Z,101330.15
2018-11-07T13:58:31.492Z,101336.34
2018-11-07T14:01:34.988Z,101329.39
2018-11-07T14:04:38.446Z,101331.15
2018-11-07T14:07:42.022Z,101335.64
2018-11-07T14:10:45.540Z,101329.74
2018-11-07T14:13:49.133Z,101338.91
2018-11-07T14:16:52.736Z,101340.20
2018-11-07T14:19:56.293Z,101348.92
2018-11-07T14:22:59.786Z,101347.34
2018-11-07T14:26:03.514Z,101349.84
2018-11-07T14:29:07.093Z,101352.71
2018-11-07T14:32:10.641Z,101362.15
2018-11-07T14:35:14.288Z,101368.13
2018-11-07T14:38:17.972Z,101372.36
2018-11-07T14:41:21.484Z,101377.75
2018-11-07T14:44:25.111Z,101385.01
2018-11-07T14:47:28.704Z,101389.90
2018-11-07T14:50:32.136Z,101391.37
2018-11-07T14:53:35.720Z,101391.79
2018-11-07T14:56:39.113Z,101394.99
2018-11-07T14:59:42.763Z,101400.45
2018-11-07T15:02:46.625Z,101399.12
2018-11-07T15:05:50.122Z,101400.35
2018-11-07T15:08:53.619Z,101402.17
2018-11-07T15:11:57.107Z,101408.97
2018-11-07T15:15:00.625Z,101411.01
2018-11-07T15:18:04.087Z,101411.50
2018-11-07T15:21:07.638Z,101426.49
2018-11-07T15:24:11.190Z,101430.84
2018-11-07T15:27:14.741Z,101432.87
2018-11-07T15:30:18.619Z,101441.77
2018-11-07T15:33:23.059Z,101441.60
2018-11-07T15:36:26.567Z,101441.90
2018-11-07T15:39:29.976Z,101434.18
2018-11-07T15:42:33.555Z,101434.26
2018-11-07T15:45:37.114Z,101441.94
2018-11-07T15:48:40.692Z,101441.50
2018-11-07T15:51:44.298Z,101430.95
2018-11-07T15:54:47.760Z,101430.43
2018-11-07T15:57:51.291Z,101444.87
2018-11-07T16:00:54.784Z,101455.19
2018-11-07T16:03:59.557Z,101459.20
2018-11-07T16:07:03.296Z,101470.20
2018-11-07T16:10:08.149Z,101467.07
2018-11-07T16:13:11.743Z,101479.84
2018-11-07T16:16:15.156Z,101490.23
2018-11-07T16:19:18.773Z,101499.08
2018-11-07T16:22:22.240Z,101508.49
2018-11-07T16:25:25.757Z,101504.91
2018-11-07T16:28:29.405Z,101510.80
2018-11-07T16:31:32.996Z,101518.48
2018-11-07T16:34:36.598Z,101525.80
2018-11-07T16:37:40.297Z,101529.66
2018-11-07T16:40:43.834Z,101546.49
2018-11-07T16:43:48.236Z,101553.58
2018-11-07T16:46:51.725Z,101549.34
2018-11-07T16:49:55.150Z,101557.81
2018-11-07T16:52:58.531Z,101562.61
2018-11-07T16:56:01.997Z,101567.21
2018-11-07T16:59:06.485Z,101577.38
2018-11-07T17:02:10.094Z,101583.83
2018-11-07T17:05:13.968Z,101594.18
2018-11-07T17:08:17.479Z,101601.97
2018-11-07T17:11:21.089Z,101603.60
2018-11-07T17:14:24.479Z,101610.29
2018-11-07T17:17:27.921Z,101617.24
2018-11-07T17:20:31.288Z,101622.87
2018-11-07T17:23:35.034Z,101620.15
2018-11-07T17:26:38.495Z,101621.64
2018-11-07T17:29:41.932Z,101622.50
2018-11-07T17:32:45.459Z,101630.63
2018-11-07T17:35:48.955Z,101630.41
2018-11-07T17:38:52.469Z,101624.56
2018-11-07T17:41:55.915Z,101627.28
2018-11-07T17:44:59.394Z,101628.63
2018-11-07T17:48:03.993Z,101638.16
2018-11-07T17:51:07.398Z,101641.71
2018-11-07T17:54:10.989Z,101645.27
2018-11-07T17:57:14.508Z,101650.63
2018-11-07T18:00:22.358Z,101649.42
2018-11-07T18:03:25.944Z,101652.69
2018-11-07T18:06:30.983Z,101667.79
2018-11-07T18:09:34.629Z,101663.67
2018-11-07T18:12:38.500Z,101651.70
2018-11-07T18:15:42.141Z,101651.83
2018-11-07T18:18:45.710Z,101651.91
2018-11-07T18:21:49.279Z,101663.48
2018-11-07T18:24:52.934Z,101674.88
2018-11-07T18:27:56.651Z,101678.70
2018-11-07T18:31:00.189Z,101686.24
2018-11-07T18:34:05.957Z,101687.17
2018-11-07T18:37:11.618Z,101689.31
2018-11-07T18:40:16.543Z,101689.43
2018-11-07T18:43:20.134Z,101692.70
2018-11-07T18:46:23.806Z,101694.33
2018-11-07T18:49:27.495Z,101702.69
2018-11-07T18:52:30.980Z,101706.98
2018-11-07T18:55:34.564Z,101701.97
2018-11-07T18:58:38.344Z,101709.25
2018-11-07T19:01:42.784Z,101710.08
2018-11-07T19:04:46.251Z,101700.93
2018-11-07T19:07:49.753Z,101709.95
2018-11-07T19:10:53.242Z,101719.57
2018-11-07T19:13:56.731Z,101731.32
2018-11-07T19:17:00.414Z,101737.12
2018-11-07T19:20:03.988Z,101733.71
2018-11-07T19:23:07.469Z,101738.04
2018-11-07T19:26:11.109Z,101742.61
2018-11-07T19:29:14.575Z,101751.08
2018-11-07T19:32:19.117Z,101753.07
2018-11-07T19:35:23.029Z,101753.48
2018-11-07T19:38:26.549Z,101752.22
2018-11-07T19:41:30.084Z,101762.06
2018-11-07T19:44:33.656Z,101774.44
2018-11-07T19:47:37.815Z,101767.56
2018-11-07T19:50:41.347Z,101767.28
2018-11-07T19:53:44.830Z,101760.75
2018-11-07T19:56:48.346Z,101766.79
2018-11-07T19:59:51.928Z,101774.00
2018-11-07T20:02:55.713Z,101779.05
2018-11-07T20:05:59.206Z,101788.53
2018-11-07T20:09:02.731Z,101792.54
2018-11-07T20:12:06.720Z,101793.12
2018-11-07T20:15:11.747Z,101802.70
2018-11-07T20:18:15.316Z,101802.42
2018-11-07T20:21:18.933Z,101810.81
2018-11-07T20:24:22.426Z,101811.49
2018-11-07T20:27:25.973Z,101809.46
2018-11-07T20:30:30.429Z,101812.99
2018-11-07T20:33:33.885Z,101813.83
2018-11-07T20:36:37.394Z,101814.18
2018-11-07T20:39:41.014Z,101812.77
2018-11-07T20:42:45.540Z,101818.64
2018-11-07T20:45:49.031Z,101805.77
2018-11-07T20:48:52.978Z,101810.73
2018-11-07T20:51:56.418Z,101810.39
2018-11-07T20:54:59.926Z,101808.65
2018-11-07T20:58:03.445Z,101817.81
2018-11-07T21:01:06.958Z,101827.39
2018-11-07T21:04:10.459Z,101830.84
2018-11-07T21:07:13.965Z,101828.79
2018-11-07T21:10:18.862Z,101834.38
2018-11-07T21:13:22.360Z,101837.88
2018-11-07T21:16:25.918Z,101836.62
2018-11-07T21:19:29.525Z,101849.04
2018-11-07T21:22:33.027Z,101846.35
2018-11-07T21:25:36.662Z,101851.44
2018-11-07T21:28:40.109Z,101854.65
2018-11-07T21:31:43.617Z,101853.05
2018-11-07T21:34:47.132Z,101854.02
2018-11-07T21:37:50.584Z,101860.65
2018-11-07T21:40:54.094Z,101865.30
2018-11-07T21:43:57.583Z,101868.40
2018-11-07T21:47:00.966Z,101877.17
2018-11-07T21:50:05.251Z,101879.22
2018-11-07T21:53:08.676Z,101877.08
2018-11-07T21:56:12.158Z,101868.54
2018-11-07T21:59:16.721Z,101867.41
2018-11-07T22:02:20.135Z,101875.53
2018-11-07T22:05:23.666Z,101885.24
2018-11-07T22:08:27.109Z,101888.80
2018-11-07T22:11:30.683Z,101892.16
2018-11-07T22:14:34.133Z,101893.41
2018-11-07T22:17:37.854Z,101891.93
2018-11-07T22:20:41.256Z,101893.45
2018-11-07T22:23:44.653Z,101891.20
2018-11-07T22:26:48.095Z,101895.85
2018-11-07T22:29:51.768Z,101898.53
2018-11-07T22:32:55.202Z,101898.83
2018-11-07T22:35:58.635Z,101893.57
2018-11-07T22:39:02.055Z,101907.83
2018-11-07T22:42:05.809Z,101910.83
2018-11-07T22:45:09.891Z,101914.31
2018-11-07T22:48:13.291Z,101913.21
2018-11-07T22:51:16.846Z,101915.08
2018-11-07T22:54:20.383Z,101920.07
2018-11-07T22:57:23.821Z,101920.47
2018-11-07T23:00:32.560Z,101922.67
2018-11-07T23:03:36.147Z,101918.69
2018-11-07T23:06:40.235Z,101925.58
2018-11-07T23:09:43.773Z,101920.23
2018-11-07T23:12:47.683Z,101918.85
2018-11-07T23:15:52.173Z,101925.98
2018-11-07T23:18:55.813Z,101922.83
2018-11-07T23:21:59.264Z,101927.96
2018-11-07T23:25:02.943Z,101934.08
2018-11-07T23:28:06.624Z,101932.97
2018-11-07T23:31:10.238Z,101940.40
2018-11-07T23:34:13.707Z,101941.26
2018-11-07T23:37:17.252Z,101949.90
2018-11-07T23:40:20.818Z,101948.40
2018-11-07T23:43:24.347Z,101945.75
2018-11-07T23:46:27.860Z,101945.18
2018-11-07T23:49:31.322Z,101945.18
2018-11-07T23:52:40.184Z,101947.72
2018-11-07T23:55:44.566Z,101954.72
2018-11-07T23:58:49.392Z,101953.08
